sensor_id;sensor_type;location;lat;lon;timestamp;temperature;humidity
57719;DHT22;43561;50.090;18.522;2023-02-18T00:02:19;9.30;99.90
57719;DHT22;43561;50.090;18.522;2023-02-18T00:12:21;9.30;99.90
57719;DHT22;43561;50.090;18.522;2023-02-18T00:22:23;9.30;99.90
57719;DHT22;43561;50.090;18.522;2023-02-18T00:32:25;9.40;99.90
57719;DHT22;43561;50.090;18.522;2023-02-18T00:42:27;9.40;99.90
57719;DHT22;43561;50.090;18.522;2023-02-18T00:52:29;9.30;99.90
57719;DHT22;43561;50.090;18.522;2023-02-18T01:02:31;9.40;99.90
57719;DHT22;43561;50.090;18.522;2023-02-18T01:12:33;10.20;99.90
57719;DHT22;43561;50.090;18.522;2023-02-18T01:22:36;9.90;99.90
57719;DHT22;43561;50.090;18.522;2023-02-18T01:32:41;9.70;99.90
57719;DHT22;43561;50.090;18.522;2023-02-18T01:42:43;9.00;99.90
57719;DHT22;43561;50.090;18.522;2023-02-18T01:52:45;8.80;99.90
57719;DHT22;43561;50.090;18.522;2023-02-18T02:02:50;8.80;99.90
57719;DHT22;43561;50.090;18.522;2023-02-18T02:33:46;8.00;99.90
57719;DHT22;43561;50.090;18.522;2023-02-18T02:44:00;7.90;99.90
57719;DHT22;43561;50.090;18.522;2023-02-18T02:54:27;8.20;99.90
57719;DHT22;43561;50.090;18.522;2023-02-18T03:25:11;8.60;99.90
57719;DHT22;43561;50.090;18.522;2023-02-18T03:35:16;8.50;99.90
57719;DHT22;43561;50.090;18.522;2023-02-18T03:45:18;8.60;99.90
57719;DHT22;43561;50.090;18.522;2023-02-18T03:55:20;8.30;99.90
57719;DHT22;43561;50.090;18.522;2023-02-18T04:05:24;8.10;99.90
57719;DHT22;43561;50.090;18.522;2023-02-18T04:15:26;7.90;99.90
57719;DHT22;43561;50.090;18.522;2023-02-18T04:25:28;7.90;99.90
57719;DHT22;43561;50.090;18.522;2023-02-18T04:35:30;7.80;99.90
57719;DHT22;43561;50.090;18.522;2023-02-18T04:45:32;7.50;99.90
57719;DHT22;43561;50.090;18.522;2023-02-18T04:55:34;7.40;99.90
57719;DHT22;43561;50.090;18.522;2023-02-18T05:05:36;7.50;99.90
57719;DHT22;43561;50.090;18.522;2023-02-18T05:15:38;7.40;99.90
57719;DHT22;43561;50.090;18.522;2023-02-18T05:25:40;7.60;99.90
57719;DHT22;43561;50.090;18.522;2023-02-18T05:35:42;7.60;99.90
57719;DHT22;43561;50.090;18.522;2023-02-18T05:45:44;7.70;99.90
57719;DHT22;43561;50.090;18.522;2023-02-18T05:55:46;7.70;99.90
57719;DHT22;43561;50.090;18.522;2023-02-18T06:05:51;8.00;99.90
57719;DHT22;43561;50.090;18.522;2023-02-18T06:15:54;7.90;99.90
57719;DHT22;43561;50.090;18.522;2023-02-18T06:25:56;7.90;99.90
57719;DHT22;43561;50.090;18.522;2023-02-18T06:36:00;8.00;99.90
57719;DHT22;43561;50.090;18.522;2023-02-18T06:46:03;8.00;99.90
57719;DHT22;43561;50.090;18.522;2023-02-18T06:56:05;8.00;99.90
57719;DHT22;43561;50.090;18.522;2023-02-18T07:06:07;8.00;99.90
57719;DHT22;43561;50.090;18.522;2023-02-18T07:16:09;8.00;99.90
57719;DHT22;43561;50.090;18.522;2023-02-18T07:26:13;8.10;99.90
57719;DHT22;43561;50.090;18.522;2023-02-18T07:36:15;8.20;99.90
57719;DHT22;43561;50.090;18.522;2023-02-18T07:46:17;8.20;99.90
57719;DHT22;43561;50.090;18.522;2023-02-18T07:56:19;8.20;99.90
57719;DHT22;43561;50.090;18.522;2023-02-18T08:06:29;8.20;99.90
57719;DHT22;43561;50.090;18.522;2023-02-18T08:16:32;8.30;99.90
57719;DHT22;43561;50.090;18.522;2023-02-18T08:26:34;8.30;99.70
57719;DHT22;43561;50.090;18.522;2023-02-18T08:36:36;8.30;99.50
57719;DHT22;43561;50.090;18.522;2023-02-18T08:46:40;8.30;98.60
57719;DHT22;43561;50.090;18.522;2023-02-18T08:56:42;8.30;98.40
57719;DHT22;43561;50.090;18.522;2023-02-18T09:06:44;8.30;98.60
57719;DHT22;43561;50.090;18.522;2023-02-18T09:16:46;8.30;98.90
57719;DHT22;43561;50.090;18.522;2023-02-18T09:26:48;8.40;98.70
57719;DHT22;43561;50.090;18.522;2023-02-18T09:36:50;8.50;96.30
57719;DHT22;43561;50.090;18.522;2023-02-18T09:47:01;8.80;94.50
57719;DHT22;43561;50.090;18.522;2023-02-18T09:57:05;8.80;92.80
57719;DHT22;43561;50.090;18.522;2023-02-18T10:07:22;8.60;90.40
57719;DHT22;43561;50.090;18.522;2023-02-18T10:17:30;8.40;91.70
57719;DHT22;43561;50.090;18.522;2023-02-18T10:27:36;8.30;95.00
57719;DHT22;43561;50.090;18.522;2023-02-18T10:58:46;6.90;99.90
57719;DHT22;43561;50.090;18.522;2023-02-18T11:08:48;6.90;99.90
57719;DHT22;43561;50.090;18.522;2023-02-18T11:18:51;6.80;99.90
57719;DHT22;43561;50.090;18.522;2023-02-18T11:29:17;7.00;99.90
57719;DHT22;43561;50.090;18.522;2023-02-18T11:39:25;7.20;99.90
57719;DHT22;43561;50.090;18.522;2023-02-18T11:49:29;7.60;99.90
57719;DHT22;43561;50.090;18.522;2023-02-18T11:59:33;7.70;99.90
57719;DHT22;43561;50.090;18.522;2023-02-18T12:09:46;7.50;99.90
57719;DHT22;43561;50.090;18.522;2023-02-18T13:01:04;7.10;99.90
57719;DHT22;43561;50.090;18.522;2023-02-18T13:11:22;7.10;99.90
57719;DHT22;43561;50.090;18.522;2023-02-18T13:21:26;7.10;99.90
57719;DHT22;43561;50.090;18.522;2023-02-18T13:31:44;7.20;99.90
57719;DHT22;43561;50.090;18.522;2023-02-18T13:41:50;7.40;99.90
57719;DHT22;43561;50.090;18.522;2023-02-18T13:51:54;7.40;99.90
57719;DHT22;43561;50.090;18.522;2023-02-18T14:02:32;7.50;99.90
57719;DHT22;43561;50.090;18.522;2023-02-18T14:12:39;7.80;99.90
57719;DHT22;43561;50.090;18.522;2023-02-18T14:22:47;8.10;99.90
57719;DHT22;43561;50.090;18.522;2023-02-18T14:32:51;8.30;99.90
57719;DHT22;43561;50.090;18.522;2023-02-18T14:53:46;8.50;99.90
57719;DHT22;43561;50.090;18.522;2023-02-18T15:03:51;8.50;99.90
57719;DHT22;43561;50.090;18.522;2023-02-18T15:13:53;8.60;99.90
57719;DHT22;43561;50.090;18.522;2023-02-18T15:24:06;8.60;99.90
57719;DHT22;43561;50.090;18.522;2023-02-18T15:44:31;8.80;99.90
57719;DHT22;43561;50.090;18.522;2023-02-18T15:54:37;8.90;99.90
57719;DHT22;43561;50.090;18.522;2023-02-18T16:04:44;8.90;99.90
57719;DHT22;43561;50.090;18.522;2023-02-18T16:14:47;9.00;99.90
57719;DHT22;43561;50.090;18.522;2023-02-18T16:24:59;9.20;99.90
57719;DHT22;43561;50.090;18.522;2023-02-18T16:35:01;9.30;99.90
57719;DHT22;43561;50.090;18.522;2023-02-18T16:45:03;9.40;99.90
57719;DHT22;43561;50.090;18.522;2023-02-18T16:55:19;9.60;99.90
57719;DHT22;43561;50.090;18.522;2023-02-18T17:05:24;9.40;99.90
57719;DHT22;43561;50.090;18.522;2023-02-18T17:15:32;9.20;99.90
57719;DHT22;43561;50.090;18.522;2023-02-18T17:25:37;9.20;99.90
57719;DHT22;43561;50.090;18.522;2023-02-18T17:35:39;9.20;99.90
57719;DHT22;43561;50.090;18.522;2023-02-18T17:45:48;9.20;99.90
57719;DHT22;43561;50.090;18.522;2023-02-18T17:55:51;9.20;99.90
57719;DHT22;43561;50.090;18.522;2023-02-18T18:05:53;9.20;99.90
57719;DHT22;43561;50.090;18.522;2023-02-18T18:15:55;9.50;99.90
57719;DHT22;43561;50.090;18.522;2023-02-18T18:25:59;9.50;99.90
57719;DHT22;43561;50.090;18.522;2023-02-18T18:36:01;9.50;99.90
57719;DHT22;43561;50.090;18.522;2023-02-18T18:46:03;9.50;99.90
57719;DHT22;43561;50.090;18.522;2023-02-18T18:56:05;9.50;99.90
57719;DHT22;43561;50.090;18.522;2023-02-18T19:06:09;9.40;99.90
57719;DHT22;43561;50.090;18.522;2023-02-18T19:26:21;9.30;99.90
57719;DHT22;43561;50.090;18.522;2023-02-18T19:36:22;9.30;99.90
57719;DHT22;43561;50.090;18.522;2023-02-18T19:46:24;9.40;99.90
57719;DHT22;43561;50.090;18.522;2023-02-18T19:56:26;9.50;99.90
57719;DHT22;43561;50.090;18.522;2023-02-18T20:06:28;9.50;99.90
57719;DHT22;43561;50.090;18.522;2023-02-18T20:16:30;9.60;99.90
57719;DHT22;43561;50.090;18.522;2023-02-18T20:26:32;9.50;99.90
57719;DHT22;43561;50.090;18.522;2023-02-18T20:36:34;9.60;99.90
57719;DHT22;43561;50.090;18.522;2023-02-18T20:46:36;9.50;99.90
57719;DHT22;43561;50.090;18.522;2023-02-18T20:56:38;9.50;99.90
57719;DHT22;43561;50.090;18.522;2023-02-18T21:06:42;9.60;99.90
57719;DHT22;43561;50.090;18.522;2023-02-18T21:16:44;9.60;99.90
57719;DHT22;43561;50.090;18.522;2023-02-18T21:26:48;9.50;99.90
57719;DHT22;43561;50.090;18.522;2023-02-18T21:36:49;9.50;99.90
57719;DHT22;43561;50.090;18.522;2023-02-18T21:46:51;9.40;99.90
57719;DHT22;43561;50.090;18.522;2023-02-18T21:56:54;9.30;99.90
57719;DHT22;43561;50.090;18.522;2023-02-18T22:06:57;9.20;99.90
57719;DHT22;43561;50.090;18.522;2023-02-18T22:16:59;9.10;99.90
57719;DHT22;43561;50.090;18.522;2023-02-18T22:27:01;9.10;99.90
57719;DHT22;43561;50.090;18.522;2023-02-18T22:37:03;9.10;99.90
57719;DHT22;43561;50.090;18.522;2023-02-18T22:47:05;8.20;99.90
57719;DHT22;43561;50.090;18.522;2023-02-18T22:57:07;7.70;99.90
57719;DHT22;43561;50.090;18.522;2023-02-18T23:07:09;7.50;99.90
57719;DHT22;43561;50.090;18.522;2023-02-18T23:17:11;7.30;99.90
57719;DHT22;43561;50.090;18.522;2023-02-18T23:27:16;7.20;99.90
57719;DHT22;43561;50.090;18.522;2023-02-18T23:37:18;6.90;99.90
57719;DHT22;43561;50.090;18.522;2023-02-18T23:47:20;6.80;99.90
57719;DHT22;43561;50.090;18.522;2023-02-18T23:57:22;6.80;99.90
